Time;durP1;ratioP1;P1;durP2;ratioP2;P2;SDS_P1;SDS_P2;PMS_P1;PMS_P2;Temp;Humidity;BMP_temperature;BMP_pressure;BME280_temperature;BME280_humidity;BME280_pressure;Samples;Min_cycle;Max_cycle;Signal;HPM_P1;HPM_P2
2022/05/16 00:02:24;;;;;;;5.85;2.03;;;21.00;74.60;;;;;;5094601;28;20024;-77
2022/05/16 00:04:51;;;;;;;4.70;1.90;;;21.00;75.00;;;;;;5094383;28;20052;-78
2022/05/16 00:07:19;;;;;;;12.77;2.80;;;21.00;74.20;;;;;;5094386;28;20114;-78
2022/05/16 00:09:45;;;;;;;8.55;2.88;;;20.80;74.70;;;;;;5094244;28;20055;-77
2022/05/16 00:12:12;;;;;;;9.13;2.22;;;20.80;75.30;;;;;;5094263;28;20051;-77
2022/05/16 00:14:40;;;;;;;8.60;2.65;;;20.90;75.80;;;;;;5094097;28;20019;-77
2022/05/16 00:17:05;;;;;;;4.43;2.13;;;20.80;75.40;;;;;;5093008;28;20496;-76
2022/05/16 00:19:31;;;;;;;6.28;2.20;;;20.70;75.30;;;;;;5094469;28;20024;-77
2022/05/16 00:21:58;;;;;;;12.38;2.47;;;20.50;75.70;;;;;;5094020;28;20043;-77
2022/05/16 00:24:26;;;;;;;6.82;2.05;;;20.60;76.50;;;;;;5094260;28;20384;-77
2022/05/16 00:26:56;;;;;;;7.90;2.65;;;20.70;75.90;;;;;;5093340;28;20039;-77
2022/05/16 00:29:23;;;;;;;14.60;2.47;;;20.60;75.80;;;;;;5093715;28;20107;-77
2022/05/16 00:31:48;;;;;;;9.88;2.30;;;20.60;76.00;;;;;;5085686;28;20115;-77
2022/05/16 00:34:15;;;;;;;7.85;2.58;;;20.50;76.40;;;;;;5073298;28;20483;-77
2022/05/16 00:36:43;;;;;;;7.40;2.50;;;20.50;77.20;;;;;;5073056;28;20381;-76
2022/05/16 00:39:09;;;;;;;7.32;2.53;;;20.50;76.70;;;;;;5072488;28;20036;-77
2022/05/16 00:41:35;;;;;;;5.63;2.20;;;20.60;76.30;;;;;;5073278;28;20024;-76
2022/05/16 00:44:01;;;;;;;7.88;2.80;;;20.70;76.30;;;;;;5074050;28;20024;-77
2022/05/16 00:46:32;;;;;;;7.28;2.28;;;20.70;77.30;;;;;;5075780;28;20036;-77
2022/05/16 00:48:59;;;;;;;5.68;2.40;;;20.80;76.20;;;;;;5095337;28;20044;-76
2022/05/16 00:51:34;;;;;;;6.53;2.50;;;20.60;77.20;;;;;;5094091;28;20040;-77
2022/05/16 00:54:25;;;;;;;16.05;2.90;;;20.70;76.80;;;;;;5093832;28;20036;-77
2022/05/16 00:56:57;;;;;;;4.90;2.38;;;20.50;77.90;;;;;;5093057;28;20086;-77
2022/05/16 00:59:30;;;;;;;8.10;2.50;;;20.30;77.20;;;;;;5093650;28;20086;-77
2022/05/16 01:04:50;;;;;;;6.55;2.30;;;20.20;78.80;;;;;;5093504;28;20024;-77
2022/05/16 01:07:29;;;;;;;7.63;2.75;;;20.40;78.50;;;;;;5093190;28;20117;-77
2022/05/16 01:09:56;;;;;;;6.68;2.17;;;20.30;78.40;;;;;;5093647;28;20028;-77
2022/05/16 01:12:35;;;;;;;6.25;2.45;;;20.30;78.60;;;;;;5092107;28;20483;-76
2022/05/16 01:15:05;;;;;;;4.78;2.70;;;20.30;79.40;;;;;;5093660;28;20032;-76
2022/05/16 01:17:31;;;;;;;9.95;2.28;;;20.40;78.50;;;;;;5092148;28;20027;-77
2022/05/16 01:19:57;;;;;;;7.93;2.88;;;20.30;79.60;;;;;;5093499;28;20039;-77
2022/05/16 01:22:32;;;;;;;7.45;2.30;;;20.40;79.70;;;;;;5093302;28;20095;-77
2022/05/16 01:25:22;;;;;;;4.82;2.70;;;20.10;79.10;;;;;;5093147;28;20143;-76
2022/05/16 01:27:57;;;;;;;7.28;2.38;;;19.90;80.30;;;;;;5093288;28;20376;-77
2022/05/16 01:30:26;;;;;;;7.53;2.42;;;19.90;81.80;;;;;;5093110;28;20469;-76
2022/05/16 01:32:52;;;;;;;6.30;2.53;;;20.10;81.00;;;;;;5093129;28;20024;-77
2022/05/16 01:35:29;;;;;;;10.57;2.58;;;20.10;80.50;;;;;;5091968;28;20127;-76
2022/05/16 01:40:40;;;;;;;8.23;3.65;;;19.90;81.30;;;;;;5091714;28;20024;-75
2022/05/16 01:43:08;;;;;;;8.68;2.20;;;19.70;82.50;;;;;;5092575;28;20035;-77
2022/05/16 01:45:36;;;;;;;6.13;2.60;;;19.80;83.00;;;;;;5093031;28;20055;-76
2022/05/16 01:48:02;;;;;;;9.68;2.90;;;19.80;83.00;;;;;;5077369;28;20055;-76
2022/05/16 01:50:29;;;;;;;7.75;2.38;;;19.80;83.40;;;;;;5072821;28;20578;-75
2022/05/16 01:52:55;;;;;;;7.93;2.30;;;19.90;83.80;;;;;;5072322;28;20029;-76
2022/05/16 01:55:21;;;;;;;6.70;2.83;;;19.90;84.40;;;;;;5072283;28;20103;-76
2022/05/16 01:57:46;;;;;;;10.98;2.83;;;19.80;84.90;;;;;;5072519;28;20029;-77
2022/05/16 02:00:15;;;;;;;5.75;2.28;;;19.70;85.80;;;;;;5072777;28;20035;-77
2022/05/16 02:02:42;;;;;;;14.43;3.60;;;19.80;86.30;;;;;;5074124;28;20025;-75
2022/05/16 02:05:22;;;;;;;10.15;2.70;;;19.80;86.80;;;;;;5092609;28;20077;-75
2022/05/16 02:07:50;;;;;;;9.82;2.70;;;19.80;87.80;;;;;;5091193;28;20074;-76
2022/05/16 02:10:17;;;;;;;10.27;2.97;;;19.70;89.20;;;;;;5091373;28;20073;-76
2022/05/16 02:12:44;;;;;;;7.80;2.60;;;19.60;89.60;;;;;;5092668;28;20111;-76
2022/05/16 02:15:12;;;;;;;8.98;2.83;;;19.50;90.60;;;;;;5091519;28;20028;-77
2022/05/16 02:17:38;;;;;;;6.40;2.75;;;19.40;91.40;;;;;;5091067;28;20066;-76
2022/05/16 02:20:06;;;;;;;10.52;2.65;;;19.40;92.20;;;;;;5092757;28;20031;-77
2022/05/16 02:25:16;;;;;;;11.30;2.80;;;19.10;94.00;;;;;;5091744;28;20098;-77
2022/05/16 02:27:43;;;;;;;7.85;2.65;;;19.10;95.00;;;;;;5092383;28;20419;-77
2022/05/16 02:30:10;;;;;;;3.90;2.25;;;19.10;95.60;;;;;;5092699;28;20508;-77
2022/05/16 02:32:36;;;;;;;7.53;2.63;;;19.10;95.90;;;;;;5092591;28;20017;-76
2022/05/16 02:35:03;;;;;;;8.20;3.03;;;19.00;96.70;;;;;;5092143;28;20052;-77
2022/05/16 02:37:29;;;;;;;5.82;2.38;;;19.00;97.20;;;;;;5092260;28;20133;-76
2022/05/16 02:39:54;;;;;;;11.40;3.00;;;18.90;97.70;;;;;;5092315;28;20465;-76
2022/05/16 02:42:20;;;;;;;7.38;2.80;;;18.90;98.20;;;;;;5092560;28;20461;-76
2022/05/16 02:44:46;;;;;;;13.05;3.25;;;19.00;98.30;;;;;;5092055;28;20110;-76
2022/05/16 02:47:15;;;;;;;7.47;3.22;;;19.10;98.20;;;;;;5083935;28;20027;-76
2022/05/16 02:49:41;;;;;;;6.15;2.65;;;19.30;97.90;;;;;;5070904;28;20056;-77
2022/05/16 02:52:07;;;;;;;6.25;2.85;;;19.20;98.20;;;;;;5073823;28;20036;-77
2022/05/16 02:54:33;;;;;;;6.93;2.47;;;19.20;98.50;;;;;;5075324;28;20025;-77
2022/05/16 02:56:59;;;;;;;9.73;3.22;;;19.20;98.70;;;;;;5075061;28;20051;-76
2022/05/16 02:59:27;;;;;;;11.07;2.97;;;19.20;98.90;;;;;;5075315;28;20020;-77
2022/05/16 03:01:53;;;;;;;5.13;2.80;;;19.00;99.50;;;;;;5075668;28;20024;-77
2022/05/16 03:04:20;;;;;;;9.57;2.33;;;19.10;99.50;;;;;;5090801;28;20051;-76
2022/05/16 03:06:45;;;;;;;7.70;3.03;;;19.20;99.60;;;;;;5094032;28;20040;-75
2022/05/16 03:09:11;;;;;;;9.25;3.42;;;19.20;99.30;;;;;;5095658;28;20032;-77
2022/05/16 03:11:37;;;;;;;10.23;3.50;;;19.00;99.80;;;;;;5093813;28;20044;-76
2022/05/16 03:14:03;;;;;;;8.05;3.40;;;19.00;99.90;;;;;;5094459;28;20032;-74
2022/05/16 03:16:29;;;;;;;8.70;3.40;;;19.10;99.90;;;;;;5095531;28;20054;-77
2022/05/16 03:18:55;;;;;;;14.73;3.65;;;19.00;99.90;;;;;;5095472;28;20111;-77
2022/05/16 03:21:22;;;;;;;10.38;2.88;;;19.00;99.90;;;;;;5095066;28;20578;-76
2022/05/16 03:23:48;;;;;;;7.07;3.08;;;19.10;99.90;;;;;;5095555;28;20074;-75
2022/05/16 03:26:14;;;;;;;13.77;3.38;;;19.00;99.90;;;;;;5095245;28;20023;-76
2022/05/16 03:28:40;;;;;;;7.80;3.50;;;19.10;99.90;;;;;;5094086;28;20024;-74
2022/05/16 03:31:07;;;;;;;9.13;3.05;;;19.10;99.90;;;;;;5093810;28;20412;-75
2022/05/16 03:33:33;;;;;;;9.40;3.40;;;19.20;99.90;;;;;;5095133;28;20032;-75
2022/05/16 03:35:59;;;;;;;9.77;3.25;;;19.20;99.90;;;;;;5093249;28;20031;-75
2022/05/16 03:41:13;;;;;;;7.07;2.97;;;19.30;99.90;;;;;;5094905;28;20036;-76
2022/05/16 03:43:40;;;;;;;9.40;3.13;;;19.50;99.90;;;;;;5095325;28;20498;-75
2022/05/16 03:46:07;;;;;;;11.23;2.97;;;19.30;99.90;;;;;;5093466;28;20039;-74
2022/05/16 03:48:34;;;;;;;5.75;3.20;;;19.10;99.90;;;;;;5074006;28;20031;-75
2022/05/16 03:51:02;;;;;;;12.57;3.28;;;19.20;99.90;;;;;;5079828;28;20032;-75
2022/05/16 03:53:28;;;;;;;4.97;2.83;;;19.30;99.90;;;;;;5094750;28;20534;-76
2022/05/16 03:55:54;;;;;;;14.13;3.70;;;19.30;99.90;;;;;;5094522;28;20028;-75
2022/05/16 03:58:20;;;;;;;6.18;2.95;;;19.10;99.90;;;;;;5094786;28;20480;-76
2022/05/16 04:00:47;;;;;;;12.45;3.47;;;19.00;99.90;;;;;;5094576;28;20035;-76
2022/05/16 04:03:12;;;;;;;9.57;3.35;;;19.00;99.90;;;;;;5091857;28;20024;-76
2022/05/16 04:05:38;;;;;;;8.43;3.20;;;19.30;99.90;;;;;;5093926;28;20032;-75
2022/05/16 04:08:04;;;;;;;13.40;3.95;;;19.40;99.90;;;;;;5094514;28;20024;-76
2022/05/16 04:10:30;;;;;;;10.65;2.85;;;19.50;99.90;;;;;;5094634;28;20028;-75
2022/05/16 04:12:57;;;;;;;8.73;3.65;;;19.40;99.90;;;;;;5094658;28;20153;-75
2022/05/16 04:15:23;;;;;;;7.50;3.22;;;19.50;99.90;;;;;;5094590;28;20489;-74
2022/05/16 04:17:49;;;;;;;9.13;3.10;;;19.70;99.90;;;;;;5093181;28;20024;-76
2022/05/16 04:20:17;;;;;;;13.77;3.70;;;19.60;99.90;;;;;;5094120;28;20396;-75
2022/05/16 04:22:43;;;;;;;8.70;3.33;;;19.60;99.90;;;;;;5094540;28;20020;-75
2022/05/16 04:25:13;;;;;;;7.97;3.42;;;19.70;99.90;;;;;;5094333;28;20113;-75
2022/05/16 04:27:39;;;;;;;11.85;3.08;;;19.40;99.90;;;;;;5093134;28;20081;-76
2022/05/16 04:30:06;;;;;;;12.60;3.47;;;19.00;99.90;;;;;;5094518;28;20419;-75
2022/05/16 04:32:32;;;;;;;9.85;3.97;;;18.90;99.90;;;;;;5099953;28;20091;-74
2022/05/16 04:34:58;;;;;;;19.70;4.15;;;19.20;99.90;;;;;;5107313;28;20035;-75
2022/05/16 04:37:25;;;;;;;11.20;3.65;;;19.40;99.90;;;;;;5094170;28;20044;-76
2022/05/16 04:39:51;;;;;;;11.85;3.20;;;19.30;99.90;;;;;;5094154;28;20085;-76
2022/05/16 04:45:02;;;;;;;12.98;2.95;;;19.40;99.90;;;;;;5086719;28;20081;-77
2022/05/16 04:47:30;;;;;;;7.95;2.88;;;19.60;99.90;;;;;;5077321;28;20062;-77
2022/05/16 04:49:55;;;;;;;12.45;2.95;;;19.50;99.90;;;;;;5073323;28;20036;-76
2022/05/16 04:52:21;;;;;;;5.18;2.72;;;19.80;99.90;;;;;;5072816;28;20085;-77
2022/05/16 04:54:48;;;;;;;9.60;2.88;;;19.80;99.90;;;;;;5073691;28;20030;-77
2022/05/16 04:57:15;;;;;;;11.02;2.90;;;19.50;99.90;;;;;;5071724;28;20041;-76
2022/05/16 04:59:40;;;;;;;18.20;3.22;;;19.60;99.90;;;;;;5074532;28;20032;-79
2022/05/16 05:02:06;;;;;;;9.25;3.20;;;19.70;99.90;;;;;;5072897;28;20492;-76
2022/05/16 05:04:32;;;;;;;11.15;3.22;;;19.60;99.90;;;;;;5072752;28;20059;-76
2022/05/16 05:06:58;;;;;;;8.75;3.53;;;19.50;99.90;;;;;;5056388;28;20036;-76
2022/05/16 05:09:23;;;;;;;9.63;2.97;;;19.40;99.90;;;;;;5072916;28;20029;-77
2022/05/16 05:14:34;;;;;;;14.75;3.60;;;19.70;99.90;;;;;;5092285;28;20137;-77
2022/05/16 05:17:06;;;;;;;7.97;3.40;;;19.80;99.90;;;;;;5074706;28;20040;-77
2022/05/16 05:19:34;;;;;;;13.15;4.88;;;19.90;99.90;;;;;;5073801;28;20067;-76
2022/05/16 05:22:00;;;;;;;14.10;4.20;;;19.70;99.90;;;;;;5072870;28;20024;-78
2022/05/16 05:24:26;;;;;;;12.18;3.85;;;19.70;99.90;;;;;;5072926;28;20028;-77
2022/05/16 05:26:53;;;;;;;9.98;3.72;;;20.00;99.90;;;;;;5072828;28;20020;-77
2022/05/16 05:29:19;;;;;;;9.73;3.30;;;19.80;99.90;;;;;;5072834;28;20032;-77
2022/05/16 05:31:46;;;;;;;7.50;3.15;;;19.90;99.90;;;;;;5073005;28;20115;-77
2022/05/16 05:34:12;;;;;;;9.43;3.00;;;20.00;99.90;;;;;;5073250;28;20017;-77
2022/05/16 05:36:39;;;;;;;8.43;2.70;;;19.80;99.90;;;;;;5072202;28;20028;-76
2022/05/16 05:39:05;;;;;;;9.70;2.58;;;19.70;99.90;;;;;;5074383;28;20586;-75
2022/05/16 05:41:31;;;;;;;5.97;2.58;;;19.80;99.90;;;;;;5070668;28;20060;-75
2022/05/16 05:43:57;;;;;;;7.88;3.10;;;19.90;99.90;;;;;;5072600;28;20055;-76
2022/05/16 05:46:26;;;;;;;9.10;2.60;;;20.00;99.90;;;;;;5073086;28;20477;-76
2022/05/16 05:48:52;;;;;;;13.02;2.65;;;20.10;99.90;;;;;;5092573;28;20506;-78
2022/05/16 05:51:19;;;;;;;4.70;2.55;;;20.10;99.90;;;;;;5092959;28;20050;-75
2022/05/16 05:53:45;;;;;;;11.38;3.08;;;20.10;99.90;;;;;;5093360;28;20029;-74
2022/05/16 05:56:12;;;;;;;12.23;2.58;;;20.10;99.90;;;;;;5092636;28;20073;-75
2022/05/16 05:58:39;;;;;;;15.65;2.80;;;20.00;99.90;;;;;;5092621;28;20039;-76
2022/05/16 06:01:06;;;;;;;6.15;2.40;;;20.10;99.90;;;;;;5091198;28;20073;-76
2022/05/16 06:03:32;;;;;;;6.25;2.25;;;20.20;99.90;;;;;;5092763;28;20484;-78
2022/05/16 06:05:58;;;;;;;13.70;2.70;;;20.20;99.90;;;;;;5092660;28;20051;-76
2022/05/16 06:08:24;;;;;;;6.90;2.42;;;20.20;99.90;;;;;;5091489;28;20028;-76
2022/05/16 06:10:50;;;;;;;6.25;2.67;;;20.30;99.90;;;;;;5092600;28;20396;-76
2022/05/16 06:13:19;;;;;;;11.30;2.38;;;20.40;99.90;;;;;;5092592;28;20028;-75
2022/05/16 06:15:45;;;;;;;8.88;2.63;;;20.30;99.90;;;;;;5092400;28;20103;-76
2022/05/16 06:18:11;;;;;;;16.13;2.55;;;20.30;99.90;;;;;;5092466;28;20086;-76
2022/05/16 06:20:37;;;;;;;7.70;2.67;;;20.40;99.90;;;;;;5079909;28;20028;-76
2022/05/16 06:23:03;;;;;;;6.93;2.13;;;20.40;99.90;;;;;;5072416;28;20489;-76
2022/05/16 06:25:32;;;;;;;11.23;2.50;;;20.50;99.90;;;;;;5072246;28;20032;-77
2022/05/16 06:28:08;;;;;;;18.30;2.65;;;20.50;99.90;;;;;;5074979;28;20113;-78
2022/05/16 06:30:37;;;;;;;8.93;2.63;;;20.60;99.90;;;;;;5086018;28;20024;-76
2022/05/16 06:33:04;;;;;;;10.02;2.22;;;20.80;99.90;;;;;;5103176;28;20042;-76
2022/05/16 06:35:30;;;;;;;10.88;2.47;;;20.80;99.90;;;;;;5085841;28;20016;-76
2022/05/16 06:38:02;;;;;;;8.88;2.47;;;20.90;99.90;;;;;;5110363;28;20024;-76
2022/05/16 06:40:28;;;;;;;14.05;3.00;;;20.90;99.90;;;;;;5099643;28;20032;-77
2022/05/16 06:42:54;;;;;;;5.45;2.65;;;21.00;99.90;;;;;;5109450;28;20102;-78
2022/05/16 06:45:20;;;;;;;15.93;2.63;;;21.20;99.90;;;;;;5105017;28;20048;-78
2022/05/16 06:47:46;;;;;;;11.45;2.88;;;21.30;99.90;;;;;;5102172;28;20024;-77
2022/05/16 06:50:12;;;;;;;14.52;2.97;;;21.40;99.90;;;;;;5112135;28;20083;-77
2022/05/16 06:52:38;;;;;;;7.10;2.53;;;21.50;99.90;;;;;;5098351;28;20055;-77
2022/05/16 06:55:04;;;;;;;11.10;2.00;;;21.60;99.90;;;;;;5108193;28;20020;-77
2022/05/16 06:57:30;;;;;;;12.63;2.33;;;21.70;99.90;;;;;;5106435;28;20027;-77
2022/05/16 06:59:56;;;;;;;6.65;2.13;;;22.00;99.90;;;;;;5099066;28;20020;-77
2022/05/16 07:02:22;;;;;;;5.63;1.77;;;22.00;99.90;;;;;;5112257;28;20114;-77
2022/05/16 07:04:48;;;;;;;12.02;2.33;;;21.90;99.90;;;;;;5094412;28;20462;-78
2022/05/16 07:07:14;;;;;;;7.63;1.98;;;22.00;99.90;;;;;;5082550;28;20033;-78
2022/05/16 07:09:39;;;;;;;15.68;3.22;;;22.30;99.90;;;;;;5085805;28;20098;-78
2022/05/16 07:12:07;;;;;;;7.07;1.90;;;22.30;99.90;;;;;;5078056;28;20029;-78
2022/05/16 07:14:34;;;;;;;7.32;2.10;;;22.10;99.90;;;;;;5109630;28;20421;-79
2022/05/16 07:17:01;;;;;;;14.05;2.33;;;22.20;99.90;;;;;;5099360;28;20052;-78
2022/05/16 07:19:31;;;;;;;5.82;2.00;;;22.20;99.90;;;;;;5105998;28;20030;-79
2022/05/16 07:21:58;;;;;;;9.27;2.05;;;22.30;99.90;;;;;;5108717;28;20100;-78
2022/05/16 07:24:24;;;;;;;8.18;2.10;;;22.40;99.90;;;;;;5097045;28;20020;-77
2022/05/16 07:29:34;;;;;;;7.22;2.08;;;22.40;99.90;;;;;;5104255;28;20024;-78
2022/05/16 07:32:00;;;;;;;8.82;2.47;;;22.30;99.90;;;;;;5101865;28;20043;-78
2022/05/16 07:34:26;;;;;;;5.88;1.98;;;22.20;99.90;;;;;;5111885;28;20027;-78
2022/05/16 07:36:51;;;;;;;7.35;2.42;;;21.90;99.90;;;;;;5099827;28;20023;-78
2022/05/16 07:39:18;;;;;;;6.45;2.10;;;21.90;99.90;;;;;;5107738;28;20058;-78
2022/05/16 07:41:44;;;;;;;4.18;1.90;;;22.10;99.90;;;;;;5093296;28;20024;-78
2022/05/16 07:44:10;;;;;;;7.10;2.00;;;22.20;99.90;;;;;;5094090;28;20069;-78
2022/05/16 07:46:35;;;;;;;8.85;2.08;;;22.20;99.90;;;;;;5074464;28;20028;-78
2022/05/16 07:49:01;;;;;;;8.13;2.33;;;22.20;99.90;;;;;;5110279;28;20035;-79
2022/05/16 07:51:27;;;;;;;12.43;2.72;;;22.10;99.90;;;;;;5098207;28;20028;-77
2022/05/16 07:53:53;;;;;;;9.25;2.20;;;22.40;99.90;;;;;;5111149;28;20099;-77
2022/05/16 07:56:18;;;;;;;6.88;2.35;;;22.50;99.90;;;;;;5102706;28;20030;-78
2022/05/16 07:58:44;;;;;;;6.93;2.45;;;22.80;99.90;;;;;;5102749;28;20028;-75
2022/05/16 08:01:10;;;;;;;6.30;2.50;;;22.80;99.90;;;;;;5109527;28;20035;-78
2022/05/16 08:03:36;;;;;;;8.70;2.20;;;22.80;99.90;;;;;;5097138;28;20055;-78
2022/05/16 08:06:01;;;;;;;8.93;2.47;;;22.90;99.90;;;;;;5108834;28;20020;-76
2022/05/16 08:11:12;;;;;;;11.00;2.47;;;23.10;99.90;;;;;;5097976;28;20044;-79
2022/05/16 08:13:39;;;;;;;4.47;2.15;;;23.00;99.90;;;;;;5111225;28;20027;-79
2022/05/16 08:16:05;;;;;;;8.00;2.35;;;22.80;99.90;;;;;;5099192;28;20456;-78
2022/05/16 08:18:31;;;;;;;8.55;2.22;;;22.40;99.90;;;;;;5104322;28;20035;-78
2022/05/16 08:20:57;;;;;;;9.85;2.83;;;22.60;99.90;;;;;;5105974;28;20020;-78
2022/05/16 08:23:26;;;;;;;5.85;2.28;;;23.10;99.90;;;;;;5121213;28;20024;-77
2022/05/16 08:25:56;;;;;;;7.97;3.15;;;23.70;99.90;;;;;;5115581;28;20024;-78
2022/05/16 08:28:23;;;;;;;10.40;2.75;;;23.90;99.90;;;;;;5102357;28;20092;-78
2022/05/16 08:30:50;;;;;;;10.80;3.25;;;23.90;99.90;;;;;;5101572;28;20064;-77
2022/05/16 08:33:16;;;;;;;7.20;3.20;;;23.60;99.90;;;;;;5108528;28;20403;-78
2022/05/16 08:35:42;;;;;;;10.05;3.00;;;23.10;99.90;;;;;;5097044;28;20091;-78
2022/05/16 08:41:02;;;;;;;18.02;2.88;;;22.80;99.90;;;;;;5106609;28;20046;-78
2022/05/16 08:44:08;;;;;;;8.35;2.75;;;22.20;99.90;;;;;;5096936;28;20023;-78
2022/05/16 08:46:38;;;;;;;18.40;4.10;;;22.00;99.90;;;;;;5080702;28;20159;-77
2022/05/16 08:49:24;;;;;;;11.35;2.72;;;22.10;99.90;;;;;;5101730;28;20058;-78
2022/05/16 08:51:59;;;;;;;8.65;2.40;;;22.00;99.90;;;;;;5071630;28;20044;-78
2022/05/16 08:54:56;;;;;;;16.02;2.95;;;22.20;99.90;;;;;;5070431;28;20131;-78
2022/05/16 08:57:30;;;;;;;15.85;3.42;;;22.20;99.90;;;;;;5055599;28;20037;-78
2022/05/16 09:00:02;;;;;;;5.40;2.72;;;22.20;99.90;;;;;;5074703;28;20028;-78
2022/05/16 09:02:29;;;;;;;12.77;3.60;;;22.60;99.90;;;;;;5079704;28;20056;-78
2022/05/16 09:05:08;;;;;;;5.65;2.90;;;22.50;99.90;;;;;;5077992;28;20028;-78
2022/05/16 09:07:49;;;;;;;14.68;3.40;;;22.30;99.90;;;;;;5074460;28;20040;-78
2022/05/16 09:10:17;;;;;;;9.73;3.22;;;22.00;99.90;;;;;;5092873;28;20036;-79
2022/05/16 09:13:03;;;;;;;14.55;3.40;;;22.10;99.90;;;;;;5094595;28;20392;-78
2022/05/16 09:15:45;;;;;;;12.88;3.55;;;22.40;99.90;;;;;;5094612;28;20051;-78
2022/05/16 09:18:19;;;;;;;;;;;22.70;99.90;;;;;;5078310;28;20082;-78
2022/05/16 09:21:07;;;;;;;12.35;3.65;;;22.90;99.90;;;;;;5073098;28;20399;-78
2022/05/16 09:24:11;;;;;;;8.73;3.20;;;22.80;99.90;;;;;;5072696;28;20086;-75
2022/05/16 09:26:58;;;;;;;8.30;3.38;;;22.70;99.90;;;;;;5071942;28;20032;-78
2022/05/16 09:29:31;;;;;;;10.85;4.50;;;22.60;99.90;;;;;;5072246;28;20186;-78
2022/05/16 09:32:13;;;;;;;13.10;4.07;;;22.80;99.90;;;;;;5074500;28;20040;-78
2022/05/16 09:34:39;;;;;;;5.90;4.20;;;22.50;99.90;;;;;;5073396;28;20037;-79
2022/05/16 09:37:06;;;;;;;13.38;4.05;;;22.50;99.90;;;;;;5073658;28;20477;-78
2022/05/16 09:39:32;;;;;;;9.80;4.18;;;22.50;99.90;;;;;;5072090;28;20056;-77
2022/05/16 09:42:11;;;;;;;11.57;4.07;;;22.40;99.90;;;;;;5073697;28;20063;-76
2022/05/16 09:44:47;;;;;;;11.43;4.05;;;22.50;99.90;;;;;;5073667;28;20469;-78
2022/05/16 09:47:29;;;;;;;10.13;4.40;;;22.20;99.90;;;;;;5081173;28;20365;-78
2022/05/16 09:50:10;;;;;;;11.32;4.25;;;22.20;99.90;;;;;;5092601;28;20119;-78
2022/05/16 09:52:45;;;;;;;6.40;3.93;;;22.30;99.90;;;;;;5093235;28;20044;-77
2022/05/16 09:55:28;;;;;;;12.27;5.00;;;22.40;99.90;;;;;;5093660;28;20036;-76
2022/05/16 09:57:58;;;;;;;13.32;5.50;;;22.40;99.90;;;;;;5092555;28;20027;-77
2022/05/16 10:00:41;;;;;;;15.63;6.03;;;22.40;99.90;;;;;;5093079;28;20066;-78
2022/05/16 10:03:36;;;;;;;11.02;5.15;;;22.60;99.90;;;;;;5096143;28;20027;-78
2022/05/16 10:06:10;;;;;;;15.18;5.90;;;22.10;99.90;;;;;;5091674;28;20485;-77
2022/05/16 10:08:42;;;;;;;10.82;5.03;;;22.10;99.90;;;;;;5109422;28;20077;-77
2022/05/16 10:11:17;;;;;;;14.98;6.25;;;21.70;99.90;;;;;;5109795;28;20158;-78
2022/05/16 10:13:44;;;;;;;17.55;6.25;;;21.30;99.90;;;;;;5108126;28;20367;-75
2022/05/16 10:16:11;;;;;;;16.05;7.07;;;21.10;99.90;;;;;;5101169;28;20022;-78
2022/05/16 10:18:44;;;;;;;20.75;7.43;;;21.00;99.90;;;;;;5092653;28;20021;-78
2022/05/16 10:21:19;;;;;;;18.23;7.15;;;21.30;99.90;;;;;;5079187;28;20036;-75
2022/05/16 10:23:46;;;;;;;16.42;7.22;;;21.50;99.90;;;;;;5074795;28;20036;-75
2022/05/16 10:26:20;;;;;;;12.68;8.02;;;21.40;99.90;;;;;;5076376;28;20040;-76
2022/05/16 10:28:55;;;;;;;12.93;7.50;;;21.50;99.90;;;;;;5075906;28;20050;-73
2022/05/16 10:34:18;;;;;;;17.00;6.68;;;21.30;99.90;;;;;;5076132;28;20021;-73
2022/05/16 10:36:48;;;;;;;17.05;7.72;;;21.50;99.90;;;;;;5075436;28;20107;-73
2022/05/16 10:39:23;;;;;;;15.63;8.02;;;21.30;99.90;;;;;;5075823;28;20036;-73
2022/05/16 10:42:03;;;;;;;14.88;7.05;;;21.30;99.90;;;;;;5076095;28;20549;-73
2022/05/16 10:44:55;;;;;;;19.17;7.22;;;21.20;99.90;;;;;;5076047;28;20090;-73
2022/05/16 10:47:31;;;;;;;;;;;21.40;99.90;;;;;;5075720;28;20043;-73
2022/05/16 10:50:00;;;;;;;23.92;7.90;;;21.60;99.90;;;;;;5096061;28;20378;-73
2022/05/16 10:52:46;;;;;;;20.58;7.22;;;21.70;99.90;;;;;;5096052;28;20077;-73
2022/05/16 10:55:13;;;;;;;21.10;8.30;;;22.10;99.90;;;;;;5096149;28;20030;-73
2022/05/16 10:57:56;;;;;;;18.35;8.10;;;22.40;99.90;;;;;;5096329;28;20035;-73
2022/05/16 11:00:50;;;;;;;17.17;6.40;;;22.30;99.90;;;;;;5095959;28;20024;-73
2022/05/16 11:03:28;;;;;;;15.20;7.30;;;22.60;99.90;;;;;;5092526;28;20039;-73
2022/05/16 11:06:27;;;;;;;18.95;6.88;;;23.20;99.90;;;;;;5095118;28;20557;-73
2022/05/16 11:08:59;;;;;;;11.05;6.38;;;23.00;99.90;;;;;;5072002;28;20488;-73
2022/05/16 11:11:50;;;;;;;17.27;7.60;;;23.00;99.90;;;;;;5095727;28;20040;-73
2022/05/16 11:14:38;;;;;;;10.65;5.78;;;23.10;99.90;;;;;;5095429;28;20141;-74
2022/05/16 11:17:36;;;;;;;10.82;5.70;;;23.20;99.90;;;;;;5094977;28;20036;-73
2022/05/16 11:20:16;;;;;;;8.93;5.15;;;22.60;99.90;;;;;;5094008;28;20396;-74
2022/05/16 11:22:46;;;;;;;11.07;5.35;;;22.30;99.90;;;;;;5095351;28;20035;-73
2022/05/16 11:25:21;;;;;;;11.00;4.60;;;22.20;99.90;;;;;;5095292;28;20036;-73
2022/05/16 11:27:56;;;;;;;10.25;4.95;;;22.10;99.90;;;;;;5094912;28;20119;-72
2022/05/16 11:30:37;;;;;;;14.15;5.18;;;22.50;99.90;;;;;;5092552;28;20024;-72
2022/05/16 11:33:27;;;;;;;9.40;5.18;;;22.70;99.90;;;;;;5092915;28;20464;-74
2022/05/16 11:36:03;;;;;;;18.52;6.40;;;22.60;99.90;;;;;;5090284;28;20443;-74
2022/05/16 11:38:38;;;;;;;12.95;6.20;;;22.70;99.90;;;;;;5094672;28;20107;-73
2022/05/16 11:41:16;;;;;;;16.73;6.45;;;22.20;99.90;;;;;;5095307;28;20036;-74
2022/05/16 11:43:44;;;;;;;10.88;5.35;;;22.50;99.90;;;;;;5095346;28;20024;-74
2022/05/16 11:46:27;;;;;;;15.32;6.18;;;22.30;99.90;;;;;;5095548;28;20032;-74
2022/05/16 11:49:17;;;;;;;14.52;5.22;;;22.80;99.90;;;;;;5073381;28;20457;-74
2022/05/16 11:52:01;;;;;;;8.82;4.65;;;23.10;99.90;;;;;;5073283;28;20037;-74
2022/05/16 11:54:39;;;;;;;16.40;4.90;;;23.30;99.90;;;;;;5074177;28;20490;-74
2022/05/16 12:02:59;;;;;;;10.10;4.22;;;23.80;98.00;;;;;;5077395;28;20028;-74
2022/05/16 12:05:26;;;;;;;11.88;4.03;;;22.60;99.90;;;;;;5094702;28;20028;-75
2022/05/16 12:08:04;;;;;;;16.77;4.65;;;22.90;99.90;;;;;;5093637;28;20032;-74
2022/05/16 12:10:32;;;;;;;12.85;3.80;;;23.20;99.90;;;;;;5094776;28;20491;-71
2022/05/16 12:13:24;;;;;;;6.63;3.60;;;23.50;99.90;;;;;;5095194;28;20503;-74
2022/05/16 12:16:28;;;;;;;13.13;4.15;;;23.10;99.90;;;;;;5094846;28;20028;-75
2022/05/16 12:19:12;;;;;;;13.10;4.05;;;22.60;99.90;;;;;;5072003;28;20101;-73
2022/05/16 12:21:38;;;;;;;16.73;4.38;;;23.10;99.90;;;;;;5090610;28;20071;-73
2022/05/16 12:24:24;;;;;;;14.07;3.63;;;23.40;99.40;;;;;;5092620;28;20020;-73
2022/05/16 12:27:07;;;;;;;14.18;3.95;;;23.00;99.40;;;;;;5092893;28;20036;-73
2022/05/16 12:29:52;;;;;;;14.57;4.03;;;22.90;99.90;;;;;;5094577;28;20020;-73
2022/05/16 12:32:28;;;;;;;14.30;3.60;;;23.00;99.90;;;;;;5092688;28;20051;-73
2022/05/16 12:35:00;;;;;;;13.50;3.67;;;22.70;99.90;;;;;;5093409;28;20031;-74
2022/05/16 12:37:27;;;;;;;10.95;3.13;;;22.90;99.90;;;;;;5094368;28;20473;-74
2022/05/16 12:40:27;;;;;;;12.90;3.13;;;23.10;99.90;;;;;;5094258;28;20017;-74
2022/05/16 12:43:26;;;;;;;20.42;3.80;;;23.10;99.40;;;;;;5092848;28;20035;-74
2022/05/16 12:46:32;;;;;;;17.75;3.75;;;23.10;99.50;;;;;;5094123;28;20477;-73
2022/05/16 12:49:27;;;;;;;11.98;3.30;;;22.80;99.90;;;;;;5073820;28;20039;-74
2022/05/16 12:51:59;;;;;;;7.60;2.95;;;22.70;99.90;;;;;;5073875;28;20455;-73
2022/05/16 12:55:03;;;;;;;11.13;2.47;;;22.90;99.80;;;;;;5073743;28;20056;-73
2022/05/16 12:57:47;;;;;;;14.85;3.25;;;22.80;99.70;;;;;;5073412;28;20040;-73
2022/05/16 13:00:24;;;;;;;11.50;2.85;;;22.90;99.90;;;;;;5073636;28;20032;-74
2022/05/16 13:03:22;;;;;;;9.90;2.65;;;22.70;99.80;;;;;;5078426;28;20456;-73
2022/05/16 13:05:58;;;;;;;8.20;1.88;;;22.60;99.80;;;;;;5088460;28;20036;-74
2022/05/16 13:08:43;;;;;;;15.30;2.28;;;22.50;99.90;;;;;;5093638;28;20035;-74
2022/05/16 13:11:42;;;;;;;12.38;1.98;;;22.70;99.70;;;;;;5093685;28;20039;-73
2022/05/16 13:14:45;;;;;;;12.07;2.20;;;23.10;99.50;;;;;;5093669;28;20063;-74
2022/05/16 13:17:28;;;;;;;9.95;2.08;;;23.40;98.90;;;;;;5093150;28;20035;-74
2022/05/16 13:19:55;;;;;;;11.07;2.40;;;23.80;97.50;;;;;;5092485;28;20027;-74
2022/05/16 13:22:22;;;;;;;7.18;2.13;;;24.00;96.40;;;;;;5093410;28;20030;-73
2022/05/16 13:24:54;;;;;;;13.45;1.98;;;24.00;96.80;;;;;;5093312;28;20036;-74
2022/05/16 13:30:09;;;;;;;12.27;2.17;;;23.80;96.70;;;;;;5093106;28;19912;-74
2022/05/16 13:32:35;;;;;;;8.80;2.63;;;23.40;97.40;;;;;;5091885;28;20047;-74
2022/05/16 13:35:07;;;;;;;15.68;2.50;;;23.60;97.00;;;;;;5092445;28;20016;-74
2022/05/16 13:37:59;;;;;;;9.27;1.80;;;23.60;96.20;;;;;;5092175;28;20043;-74
2022/05/16 13:40:32;;;;;;;8.65;1.95;;;24.00;95.80;;;;;;5089986;28;20036;-74
2022/05/16 13:42:58;;;;;;;8.65;1.90;;;23.80;96.50;;;;;;5093128;28;20030;-74